Time;durP1;ratioP1;P1;durP2;ratioP2;P2;SDS_P1;SDS_P2;PMS_P1;PMS_P2;Temp;Humidity;BMP_temperature;BMP_pressure;BME280_temperature;BME280_humidity;BME280_pressure;Samples;Min_cycle;Max_cycle;Signal;HPM_P1;HPM_P2
2021/04/01 00:00:14;;;;;;;;;;;31.10;6.50;;;;;;5118323;27;19956;-65
2021/04/01 00:02:42;;;;;;;;;;;31.10;6.60;;;;;;5118597;27;19959;-65
2021/04/01 00:05:08;;;;;;;;;;;31.10;7.10;;;;;;5117077;27;19956;-65
2021/04/01 00:07:34;;;;;;;;;;;31.00;7.00;;;;;;5114439;27;20391;-66
2021/04/01 00:10:01;;;;;;;;;;;31.10;6.90;;;;;;5119183;27;19990;-64
2021/04/01 00:12:27;;;;;;;;;;;31.00;6.60;;;;;;5121878;27;19987;-64
2021/04/01 00:14:53;;;;;;;;;;;30.90;6.60;;;;;;5119266;27;20430;-65
2021/04/01 00:17:20;;;;;;;;;;;30.90;6.70;;;;;;5103567;27;20308;-64
2021/04/01 00:19:46;;;;;;;;;;;30.90;6.90;;;;;;5122257;27;19956;-66
2021/04/01 00:22:12;;;;;;;;;;;30.90;6.90;;;;;;5098416;27;20404;-63
2021/04/01 00:24:39;;;;;;;;;;;30.80;6.80;;;;;;5095196;28;19960;-65
2021/04/01 00:27:05;;;;;;;;;;;30.60;7.00;;;;;;5121826;27;19963;-66
2021/04/01 00:29:32;;;;;;;;;;;30.60;7.30;;;;;;5097207;27;19964;-65
2021/04/01 00:31:58;;;;;;;;;;;30.70;7.10;;;;;;5120383;27;20343;-64
2021/04/01 00:34:24;;;;;;;;;;;30.50;8.40;;;;;;5094835;27;19960;-65
2021/04/01 00:36:50;;;;;;;;;;;30.40;8.70;;;;;;5117574;27;19957;-65
2021/04/01 00:39:16;;;;;;;;;;;30.40;8.70;;;;;;5096420;28;19961;-64
2021/04/01 00:41:43;;;;;;;;;;;30.20;8.70;;;;;;5119176;27;19979;-65
2021/04/01 00:44:09;;;;;;;;;;;30.30;8.70;;;;;;5102106;27;19960;-67
2021/04/01 00:46:36;;;;;;;;;;;30.30;8.60;;;;;;5120975;27;19971;-68
2021/04/01 00:49:02;;;;;;;;;;;30.10;8.40;;;;;;5119655;27;19990;-67
2021/04/01 00:51:29;;;;;;;;;;;29.80;8.40;;;;;;5115738;27;20404;-67
2021/04/01 00:53:55;;;;;;;;;;;29.90;8.70;;;;;;5116152;27;19956;-69
2021/04/01 00:56:23;;;;;;;;;;;29.90;8.10;;;;;;5120772;27;20412;-66
2021/04/01 00:58:50;;;;;;;;;;;29.90;7.80;;;;;;5116278;27;20001;-67
2021/04/01 01:03:42;;;;;;;;;;;29.70;8.10;;;;;;5114694;27;20423;-65
2021/04/01 01:06:08;;;;;;;;;;;30.30;7.90;;;;;;5122125;27;19978;-66
2021/04/01 01:08:34;;;;;;;;;;;30.40;7.80;;;;;;5115988;27;20412;-66
2021/04/01 01:11:00;;;;;;;;;;;30.40;7.90;;;;;;5124876;27;19983;-68
2021/04/01 01:13:28;;;;;;;;;;;30.40;7.90;;;;;;5118773;27;20355;-67
2021/04/01 01:15:54;;;;;;;;;;;30.90;7.70;;;;;;5116046;27;19956;-66
2021/04/01 01:18:20;;;;;;;;;;;31.80;7.20;;;;;;5119328;27;19963;-65
2021/04/01 01:20:46;;;;;;;;;;;32.00;7.00;;;;;;5122937;27;20000;-67
2021/04/01 01:23:13;;;;;;;;;;;31.70;6.70;;;;;;5117374;27;19977;-65
2021/04/01 01:25:39;;;;;;;;;;;31.20;6.90;;;;;;5119983;27;19956;-64
2021/04/01 01:28:05;;;;;;;;;;;30.30;7.40;;;;;;5118115;27;19986;-65
2021/04/01 01:30:33;;;;;;;;;;;29.80;7.80;;;;;;5116737;27;20355;-65
2021/04/01 01:33:03;;;;;;;;;;;29.20;8.00;;;;;;5116350;27;19987;-65
2021/04/01 01:35:31;;;;;;;;;;;28.90;8.10;;;;;;5116699;27;20414;-65
2021/04/01 01:37:59;;;;;;;;;;;28.70;8.30;;;;;;5098529;27;19955;-65
2021/04/01 01:40:26;;;;;;;;;;;28.40;8.40;;;;;;5122515;27;19967;-66
2021/04/01 01:42:53;;;;;;;;;;;28.20;8.50;;;;;;5101311;27;20428;-66
2021/04/01 01:45:20;;;;;;;;;;;28.10;8.50;;;;;;5114995;27;19960;-65
2021/04/01 01:47:47;;;;;;;;;;;27.90;8.60;;;;;;5094516;27;20055;-66
2021/04/01 01:50:16;;;;;;;;;;;27.80;8.60;;;;;;5116837;27;19995;-66
2021/04/01 01:52:42;;;;;;;;;;;27.60;9.10;;;;;;5096554;28;20007;-66
2021/04/01 01:55:09;;;;;;;;;;;27.40;8.90;;;;;;5115837;27;20049;-65
2021/04/01 01:57:35;;;;;;;;;;;27.20;8.60;;;;;;5099898;27;19963;-65
2021/04/01 02:00:04;;;;;;;;;;;27.10;8.70;;;;;;5117167;27;20035;-65
2021/04/01 02:02:30;;;;;;;;;;;27.00;8.80;;;;;;5112212;27;19963;-65
2021/04/01 02:04:56;;;;;;;;;;;26.90;8.80;;;;;;5093478;28;19956;-65
2021/04/01 02:07:22;;;;;;;;;;;26.80;8.90;;;;;;5116317;28;19960;-65
2021/04/01 02:09:49;;;;;;;;;;;26.70;9.10;;;;;;5116020;28;19956;-65
2021/04/01 02:12:15;;;;;;;;;;;26.60;8.90;;;;;;5116974;27;19983;-66
2021/04/01 02:14:44;;;;;;;;;;;26.50;9.10;;;;;;5103924;27;20048;-66
2021/04/01 02:17:17;;;;;;;;;;;26.40;9.00;;;;;;5120187;27;19966;-65
2021/04/01 02:19:43;;;;;;;;;;;26.30;9.10;;;;;;5119547;27;19963;-65
2021/04/01 02:22:09;;;;;;;;;;;26.20;9.70;;;;;;5098573;27;19962;-65
2021/04/01 02:24:35;;;;;;;;;;;26.10;9.40;;;;;;5118979;27;19957;-66
2021/04/01 02:27:02;;;;;;;;;;;26.00;9.70;;;;;;5122227;27;19956;-65
2021/04/01 02:29:28;;;;;;;;;;;26.00;9.70;;;;;;5100033;27;19956;-66
2021/04/01 02:31:54;;;;;;;;;;;25.90;10.10;;;;;;5125485;27;20311;-65
2021/04/01 02:34:20;;;;;;;;;;;25.70;10.20;;;;;;5101132;27;20427;-65
2021/04/01 02:36:46;;;;;;;;;;;25.60;10.30;;;;;;5100036;27;20065;-66
2021/04/01 02:39:14;;;;;;;;;;;25.60;10.20;;;;;;5115013;27;19999;-67
2021/04/01 02:41:40;;;;;;;;;;;25.50;10.60;;;;;;5099659;27;19968;-66
2021/04/01 02:44:06;;;;;;;;;;;25.40;10.90;;;;;;5119744;27;19960;-67
2021/04/01 02:46:33;;;;;;;;;;;25.30;10.90;;;;;;5120973;27;20055;-66
2021/04/01 02:48:59;;;;;;;;;;;25.30;11.10;;;;;;5097055;28;20405;-67
2021/04/01 02:51:25;;;;;;;;;;;25.10;11.30;;;;;;5115431;27;20352;-67
2021/04/01 02:53:51;;;;;;;;;;;25.10;11.30;;;;;;5114059;27;20014;-68
2021/04/01 02:56:17;;;;;;;;;;;25.00;11.70;;;;;;5121654;27;20355;-66
2021/04/01 02:58:44;;;;;;;;;;;24.90;11.50;;;;;;5121102;27;20085;-67
2021/04/01 03:01:10;;;;;;;;;;;24.80;11.80;;;;;;5117786;27;20447;-67
2021/04/01 03:03:43;;;;;;;;;;;24.70;11.70;;;;;;5117977;27;20105;-66
2021/04/01 03:06:09;;;;;;;;;;;24.70;12.00;;;;;;5107905;27;20047;-66
2021/04/01 03:08:35;;;;;;;;;;;24.60;11.80;;;;;;5119942;27;20406;-67
2021/04/01 03:11:02;;;;;;;;;;;24.40;12.00;;;;;;5132348;27;19992;-67
2021/04/01 03:13:28;;;;;;;;;;;24.40;12.10;;;;;;5097953;28;19956;-68
2021/04/01 03:15:55;;;;;;;;;;;24.30;12.40;;;;;;5082322;28;20047;-67
2021/04/01 03:18:21;;;;;;;;;;;24.30;12.80;;;;;;5102075;28;19983;-66
2021/04/01 03:20:48;;;;;;;;;;;24.10;12.40;;;;;;5102184;28;19956;-67
2021/04/01 03:23:15;;;;;;;;;;;24.10;12.40;;;;;;5092515;28;19956;-68
2021/04/01 03:25:41;;;;;;;;;;;24.00;12.30;;;;;;5096969;28;19968;-67
2021/04/01 03:28:07;;;;;;;;;;;24.00;12.30;;;;;;5097071;28;19961;-67
2021/04/01 03:30:35;;;;;;;;;;;24.00;12.40;;;;;;5092490;28;20029;-67
2021/04/01 03:33:01;;;;;;;;;;;23.90;12.50;;;;;;5094821;28;19961;-67
2021/04/01 03:35:27;;;;;;;;;;;23.80;12.40;;;;;;5096782;28;20008;-68
2021/04/01 03:38:02;;;;;;;;;;;23.80;12.80;;;;;;5098659;28;20077;-68
2021/04/01 03:40:29;;;;;;;;;;;23.70;12.80;;;;;;5098500;28;20007;-67
2021/04/01 03:42:55;;;;;;;;;;;23.60;12.90;;;;;;5103468;28;20423;-67
2021/04/01 03:45:21;;;;;;;;;;;23.60;13.10;;;;;;5096449;28;21338;-68
2021/04/01 03:47:48;;;;;;;;;;;23.60;13.30;;;;;;5095144;28;19956;-68
2021/04/01 03:50:14;;;;;;;;;;;23.50;13.40;;;;;;5098325;28;20012;-66
2021/04/01 03:52:41;;;;;;;;;;;23.40;13.60;;;;;;5088576;28;19960;-67
2021/04/01 03:55:53;;;;;;;;;;;23.30;13.90;;;;;;5092300;28;19964;-67
2021/04/01 04:01:01;;;;;;;;;;;23.10;14.60;;;;;;5081312;28;20346;-67
2021/04/01 04:11:43;;;;;;;;;;;22.60;15.90;;;;;;5095468;28;20037;-66
2021/04/01 04:14:15;;;;;;;;;;;22.60;16.00;;;;;;5092883;28;19953;-66
2021/04/01 04:16:41;;;;;;;;;;;22.50;16.10;;;;;;5103909;28;19961;-67
2021/04/01 04:19:08;;;;;;;;;;;22.40;16.50;;;;;;5089696;28;19956;-66
2021/04/01 04:21:34;;;;;;;;;;;22.30;16.70;;;;;;5090857;28;20397;-66
2021/04/01 04:24:03;;;;;;;;;;;22.20;16.90;;;;;;5090736;28;19964;-67
2021/04/01 04:26:30;;;;;;;;;;;22.10;17.20;;;;;;5090959;28;19992;-67
2021/04/01 04:28:56;;;;;;;;;;;22.00;17.40;;;;;;5089260;28;19956;-66
2021/04/01 04:31:22;;;;;;;;;;;22.00;17.50;;;;;;5089478;28;20006;-65
2021/04/01 04:33:51;;;;;;;;;;;21.90;17.70;;;;;;5087908;28;20055;-68
2021/04/01 04:36:17;;;;;;;;;;;21.80;18.00;;;;;;5103849;28;19962;-66
2021/04/01 04:38:43;;;;;;;;;;;21.70;18.00;;;;;;5104001;28;19965;-68
2021/04/01 04:41:10;;;;;;;;;;;21.70;18.20;;;;;;5089177;28;20372;-67
2021/04/01 04:43:36;;;;;;;;;;;21.70;18.20;;;;;;5089083;28;19979;-66
2021/04/01 04:46:03;;;;;;;;;;;21.60;18.40;;;;;;5070391;28;20006;-66
2021/04/01 04:48:30;;;;;;;;;;;21.50;18.60;;;;;;5071967;28;19964;-66
2021/04/01 04:50:56;;;;;;;;;;;21.50;18.60;;;;;;5104596;28;20031;-66
2021/04/01 04:53:23;;;;;;;;;;;21.40;18.60;;;;;;5072775;28;19967;-66
2021/04/01 04:59:15;;;;;;;;;;;21.30;18.60;;;;;;5030611;28;19957;-67
2021/04/01 05:04:41;;;;;;;;;;;21.30;18.50;;;;;;5073182;28;20188;-66
2021/04/01 05:07:08;;;;;;;;;;;21.30;18.40;;;;;;5091881;28;19960;-67
2021/04/01 05:09:34;;;;;;;;;;;21.20;18.20;;;;;;5071616;28;20052;-67
2021/04/01 05:12:00;;;;;;;;;;;21.20;18.30;;;;;;5088699;28;20063;-66
2021/04/01 05:14:26;;;;;;;;;;;21.10;18.40;;;;;;5089974;28;20025;-66
2021/04/01 05:16:52;;;;;;;;;;;21.10;18.20;;;;;;5091312;28;19971;-66
2021/04/01 05:19:20;;;;;;;;;;;21.10;17.90;;;;;;5104524;28;20003;-66
2021/04/01 05:24:26;;;;;;;;;;;21.00;17.90;;;;;;5089165;28;19964;-66
2021/04/01 05:29:21;;;;;;;;;;;20.90;17.30;;;;;;5089048;28;19964;-65
2021/04/01 05:31:49;;;;;;;;;;;20.90;16.10;;;;;;5071329;28;19987;-65
2021/04/01 05:34:15;;;;;;;;;;;20.90;15.60;;;;;;5090676;28;19961;-65
2021/04/01 05:36:44;;;;;;;;;;;20.90;15.00;;;;;;5089269;28;19960;-66
2021/04/01 05:39:17;;;;;;;;;;;20.90;14.60;;;;;;5089146;28;19960;-66
2021/04/01 05:41:45;;;;;;;;;;;20.90;14.20;;;;;;5089286;28;19952;-66
2021/04/01 05:44:19;;;;;;;;;;;21.00;14.20;;;;;;5070182;28;19964;-69
2021/04/01 05:57:52;;;;;;;;;;;20.90;13.80;;;;;;5088036;28;19959;-65
2021/04/01 06:00:35;;;;;;;;;;;20.90;13.50;;;;;;5089457;28;19960;-66
2021/04/01 06:05:53;;;;;;;;;;;20.90;13.60;;;;;;5089407;28;19963;-65
2021/04/01 06:08:25;;;;;;;;;;;20.90;13.50;;;;;;5088910;28;19964;-64
2021/04/01 06:10:51;;;;;;;;;;;20.90;13.40;;;;;;5074667;28;19995;-66
2021/04/01 06:13:18;;;;;;;;;;;20.80;13.10;;;;;;5098421;28;19957;-65
2021/04/01 06:15:52;;;;;;;;;;;20.80;12.80;;;;;;5098570;28;19964;-65
2021/04/01 06:18:20;;;;;;;;;;;20.80;12.80;;;;;;5099176;28;20007;-64
2021/04/01 06:20:47;;;;;;;;;;;20.80;13.20;;;;;;5093875;28;19956;-65
2021/04/01 06:23:42;;;;;;;;;;;20.70;13.00;;;;;;5093125;28;19962;-64
2021/04/01 06:26:14;;;;;;;;;;;20.70;13.10;;;;;;5082826;28;19963;-65
2021/04/01 06:28:48;;;;;;;;;;;20.80;12.60;;;;;;5091239;28;19980;-63
2021/04/01 06:31:19;;;;;;;;;;;20.70;12.70;;;;;;5090967;28;20417;-66
2021/04/01 06:33:49;;;;;;;;;;;20.70;12.70;;;;;;5095305;28;19952;-65
2021/04/01 06:36:19;;;;;;;;;;;20.60;12.70;;;;;;5095868;28;19960;-66
2021/04/01 06:38:46;;;;;;;;;;;20.60;12.80;;;;;;5091948;28;19984;-63
2021/04/01 06:41:22;;;;;;;;;;;20.50;13.10;;;;;;5080357;28;19957;-64
2021/04/01 06:44:03;;;;;;;;;;;20.50;13.30;;;;;;5095133;28;19955;-64
2021/04/01 06:46:41;;;;;;;;;;;20.40;13.60;;;;;;5085821;28;20003;-65
2021/04/01 06:52:00;;;;;;;;;;;20.30;14.00;;;;;;5094863;28;19983;-64
2021/04/01 06:54:33;;;;;;;;;;;20.20;14.00;;;;;;5092721;28;20313;-64
2021/04/01 06:57:15;;;;;;;;;;;20.20;13.80;;;;;;5097892;28;20011;-62
2021/04/01 07:00:01;;;;;;;;;;;20.20;13.50;;;;;;5097655;28;20304;-63
2021/04/01 07:02:33;;;;;;;;;;;20.10;13.70;;;;;;5098724;28;19961;-64
2021/04/01 07:05:36;;;;;;;;;;;20.10;13.70;;;;;;5097385;28;19963;-63
2021/04/01 07:08:08;;;;;;;;;;;20.10;13.90;;;;;;5092490;28;20009;-63
2021/04/01 07:13:16;;;;;;;;;;;20.00;14.10;;;;;;5119764;27;19962;-63
2021/04/01 07:15:46;;;;;;;;;;;20.00;14.10;;;;;;5121411;27;19962;-63
2021/04/01 07:18:39;;;;;;;;;;;20.00;14.40;;;;;;5122072;27;19968;-64
2021/04/01 07:30:48;;;;;;;;;;;19.90;14.70;;;;;;5120922;27;20327;-62
2021/04/01 07:35:21;;;;;;;;;;;19.80;14.20;;;;;;5119110;27;19959;-62
2021/04/01 07:48:56;;;;;;;;;;;19.90;13.50;;;;;;5111291;27;19956;-64
2021/04/01 07:54:09;;;;;;;;;;;19.90;13.20;;;;;;5122654;27;19994;-63
2021/04/01 07:59:26;;;;;;;;;;;20.00;13.00;;;;;;5105878;27;20000;-63
2021/04/01 08:04:22;;;;;;;;;;;20.00;13.20;;;;;;5121348;27;19963;-64
2021/04/01 08:06:48;;;;;;;;;;;19.90;13.30;;;;;;5119683;27;19963;-64
2021/04/01 08:09:20;;;;;;;;;;;19.90;13.40;;;;;;5122297;27;19967;-63
2021/04/01 08:11:51;;;;;;;;;;;19.90;13.50;;;;;;5115953;27;20380;-62
2021/04/01 08:14:24;;;;;;;;;;;19.90;13.50;;;;;;5115126;27;19959;-63
2021/04/01 08:16:54;;;;;;;;;;;19.90;13.40;;;;;;5114117;27;19999;-63
2021/04/01 08:19:21;;;;;;;;;;;19.90;13.10;;;;;;5119881;27;19964;-64
2021/04/01 08:21:48;;;;;;;;;;;19.90;13.00;;;;;;5121529;27;20408;-62
2021/04/01 08:24:25;;;;;;;;;;;19.90;13.10;;;;;;5096517;27;19955;-62
2021/04/01 08:32:21;;;;;;;;;;;19.80;13.20;;;;;;5117717;27;20554;-62
2021/04/01 08:34:48;;;;;;;;;;;19.80;13.20;;;;;;5119783;27;19986;-63
2021/04/01 08:37:15;;;;;;;;;;;19.80;13.40;;;;;;5116869;27;19956;-62
2021/04/01 08:39:43;;;;;;;;;;;19.70;13.80;;;;;;5120409;27;19964;-63
2021/04/01 08:42:19;;;;;;;;;;;19.70;14.00;;;;;;5117098;27;20047;-62
2021/04/01 08:45:08;;;;;;;;;;;19.60;14.10;;;;;;5115771;27;20408;-62
2021/04/01 08:47:46;;;;;;;;;;;19.50;14.30;;;;;;5098754;28;19957;-61
2021/04/01 08:53:38;;;;;;;;;;;19.50;14.30;;;;;;5100107;27;20404;-62
2021/04/01 08:56:26;;;;;;;;;;;19.50;13.90;;;;;;5074251;27;20016;-62
2021/04/01 08:59:06;;;;;;;;;;;19.50;13.30;;;;;;5117727;27;19960;-64
2021/04/01 09:01:35;;;;;;;;;;;19.50;12.90;;;;;;5118643;27;19960;-63
2021/04/01 09:04:01;;;;;;;;;;;19.50;13.10;;;;;;5119524;27;19964;-64
2021/04/01 09:06:34;;;;;;;;;;;19.50;13.30;;;;;;5116899;27;20056;-63
2021/04/01 09:09:12;;;;;;;;;;;19.50;13.20;;;;;;5115554;27;19964;-60
2021/04/01 09:14:15;;;;;;;;;;;19.60;14.40;;;;;;5117068;27;19969;-62
2021/04/01 09:16:48;;;;;;;;;;;19.50;13.60;;;;;;5118898;27;20046;-62
2021/04/01 09:19:16;;;;;;;;;;;19.40;13.50;;;;;;5116983;27;19959;-60
2021/04/01 09:21:43;;;;;;;;;;;19.40;13.60;;;;;;5094405;28;19961;-62
2021/04/01 09:24:12;;;;;;;;;;;19.40;13.80;;;;;;5093561;27;20018;-63
2021/04/01 09:26:46;;;;;;;;;;;19.30;13.90;;;;;;5121942;27;20051;-62
2021/04/01 09:29:12;;;;;;;;;;;19.20;13.80;;;;;;5115980;27;19964;-61
2021/04/01 09:31:47;;;;;;;;;;;19.20;13.80;;;;;;5120282;27;19976;-63
2021/04/01 09:34:17;;;;;;;;;;;19.20;13.80;;;;;;5119437;27;20492;-62
2021/04/01 09:36:44;;;;;;;;;;;19.20;14.20;;;;;;5121166;27;19956;-61
2021/04/01 09:41:43;;;;;;;;;;;19.10;13.70;;;;;;5122229;27;19963;-61
2021/04/01 09:44:09;;;;;;;;;;;19.10;13.90;;;;;;5120504;27;20450;-61
2021/04/01 09:46:36;;;;;;;;;;;19.00;14.10;;;;;;5117193;27;19956;-62
2021/04/01 09:49:05;;;;;;;;;;;19.10;14.30;;;;;;5112918;27;20361;-62
2021/04/01 09:51:32;;;;;;;;;;;19.00;14.30;;;;;;5119898;27;19986;-62
2021/04/01 09:53:58;;;;;;;;;;;18.90;14.40;;;;;;5117751;27;19956;-62
2021/04/01 09:56:29;;;;;;;;;;;18.90;14.40;;;;;;5119072;27;19959;-62
2021/04/01 09:58:56;;;;;;;;;;;18.90;14.90;;;;;;5118261;27;19956;-67
2021/04/01 10:01:39;;;;;;;;;;;18.90;14.60;;;;;;5116561;27;20008;-61
2021/04/01 10:04:17;;;;;;;;;;;18.90;14.40;;;;;;5115282;28;19960;-62
2021/04/01 10:06:46;;;;;;;;;;;18.80;14.30;;;;;;5119308;27;19963;-63
2021/04/01 10:09:16;;;;;;;;;;;18.80;14.30;;;;;;5118086;27;19967;-63
2021/04/01 10:11:46;;;;;;;;;;;18.70;14.70;;;;;;5094854;28;19994;-61
2021/04/01 10:14:13;;;;;;;;;;;18.70;15.00;;;;;;5117866;28;19963;-61
2021/04/01 10:17:11;;;;;;;;;;;18.70;14.70;;;;;;5114752;28;20374;-60
2021/04/01 10:19:38;;;;;;;;;;;18.70;14.30;;;;;;5081572;28;20368;-60
2021/04/01 10:22:05;;;;;;;;;;;18.70;14.00;;;;;;5116608;28;19956;-62
2021/04/01 10:24:35;;;;;;;;;;;18.80;14.30;;;;;;5108056;28;19984;-61
2021/04/01 10:32:14;;;;;;;;;;;18.70;14.00;;;;;;5114288;28;20102;-62
2021/04/01 10:34:46;;;;;;;;;;;18.70;14.30;;;;;;5119229;27;19957;-62
2021/04/01 10:37:15;;;;;;;;;;;18.70;14.30;;;;;;5117037;27;19968;-62
2021/04/01 10:39:41;;;;;;;;;;;18.70;14.50;;;;;;5121903;27;20323;-60
2021/04/01 10:42:09;;;;;;;;;;;18.60;14.60;;;;;;5120819;27;20362;-62
2021/04/01 10:44:36;;;;;;;;;;;18.60;14.40;;;;;;5117987;27;19964;-62
2021/04/01 10:47:03;;;;;;;;;;;18.50;14.60;;;;;;5117629;27;19960;-60
2021/04/01 10:49:33;;;;;;;;;;;18.50;14.50;;;;;;5124299;27;19956;-62
2021/04/01 10:52:01;;;;;;;;;;;18.40;14.60;;;;;;5115531;27;19983;-61
2021/04/01 10:54:40;;;;;;;;;;;18.40;14.70;;;;;;5120021;27;20004;-61
2021/04/01 10:57:08;;;;;;;;;;;18.40;15.00;;;;;;5119974;27;19986;-61
2021/04/01 10:59:35;;;;;;;;;;;18.40;14.50;;;;;;5123778;27;19959;-61
2021/04/01 11:02:12;;;;;;;;;;;18.40;14.90;;;;;;5123856;27;19956;-60
2021/04/01 11:04:39;;;;;;;;;;;18.50;14.00;;;;;;5122512;27;20420;-61
2021/04/01 11:07:05;;;;;;;;;;;18.50;14.00;;;;;;5121385;27;19979;-61
2021/04/01 11:09:33;;;;;;;;;;;18.50;13.40;;;;;;5122286;27;20408;-60
2021/04/01 11:12:16;;;;;;;;;;;18.50;13.50;;;;;;5119437;27;20405;-61
2021/04/01 11:14:43;;;;;;;;;;;18.50;13.60;;;;;;5120254;27;19960;-61
2021/04/01 11:17:09;;;;;;;;;;;18.50;13.50;;;;;;5120057;27;20324;-61
2021/04/01 11:19:36;;;;;;;;;;;18.50;13.20;;;;;;5123185;27;19955;-61
2021/04/01 11:22:03;;;;;;;;;;;18.50;12.70;;;;;;5120000;27;20062;-61
2021/04/01 11:24:30;;;;;;;;;;;18.60;12.60;;;;;;5121207;27;20411;-61
2021/04/01 11:26:58;;;;;;;;;;;18.60;12.70;;;;;;5122067;27;19978;-61
2021/04/01 11:29:30;;;;;;;;;;;18.60;12.60;;;;;;5123398;27;19960;-62
2021/04/01 11:32:09;;;;;;;;;;;18.60;12.50;;;;;;5119867;27;19983;-61
2021/04/01 11:34:35;;;;;;;;;;;18.70;12.30;;;;;;5121598;27;19956;-59
2021/04/01 11:37:02;;;;;;;;;;;18.70;12.60;;;;;;5099972;27;20657;-61
2021/04/01 11:39:39;;;;;;;;;;;18.70;12.20;;;;;;5119413;27;19959;-61
2021/04/01 11:42:08;;;;;;;;;;;18.80;12.00;;;;;;5119800;27;20384;-62
2021/04/01 11:44:36;;;;;;;;;;;18.90;12.00;;;;;;5116476;27;20055;-61
2021/04/01 11:47:12;;;;;;;;;;;18.90;11.90;;;;;;5115648;27;20051;-61
2021/04/01 11:49:38;;;;;;;;;;;18.90;12.40;;;;;;5122578;27;20038;-61
2021/04/01 11:52:07;;;;;;;;;;;18.90;12.10;;;;;;5098983;27;19975;-59
2021/04/01 11:54:33;;;;;;;;;;;18.90;12.00;;;;;;5121829;27;19956;-60
2021/04/01 11:57:00;;;;;;;;;;;18.90;12.20;;;;;;5118295;27;19978;-59
2021/04/01 11:59:35;;;;;;;;;;;18.90;12.80;;;;;;5119311;27;20409;-61
2021/04/01 12:02:06;;;;;;;;;;;18.90;13.00;;;;;;5121026;27;20157;-60
2021/04/01 12:04:35;;;;;;;;;;;18.90;12.50;;;;;;5117072;27;20018;-61
2021/04/01 12:07:04;;;;;;;;;;;18.90;12.00;;;;;;5102892;27;20056;-62
2021/04/01 12:09:30;;;;;;;;;;;19.00;11.70;;;;;;5117841;27;20444;-61
2021/04/01 12:11:56;;;;;;;;;;;19.00;11.40;;;;;;5120484;27;20038;-60
2021/04/01 12:14:32;;;;;;;;;;;19.00;11.20;;;;;;5119897;27;20003;-61
2021/04/01 12:17:01;;;;;;;;;;;19.00;11.30;;;;;;5101968;27;19955;-60
2021/04/01 12:19:28;;;;;;;;;;;19.00;11.40;;;;;;5122739;27;20071;-60
2021/04/01 12:21:54;;;;;;;;;;;19.10;11.30;;;;;;5120713;27;19960;-62
2021/04/01 12:24:21;;;;;;;;;;;19.00;11.20;;;;;;5115236;27;19963;-61
2021/04/01 12:26:50;;;;;;;;;;;19.10;11.40;;;;;;5118136;27;20016;-62
2021/04/01 12:29:17;;;;;;;;;;;19.00;11.60;;;;;;5119019;27;19956;-63
2021/04/01 12:31:48;;;;;;;;;;;19.00;11.80;;;;;;5115972;27;19976;-62
2021/04/01 12:34:30;;;;;;;;;;;19.10;12.50;;;;;;5116863;27;20428;-62
2021/04/01 12:36:58;;;;;;;;;;;19.10;12.50;;;;;;5120806;27;20361;-62
2021/04/01 12:39:35;;;;;;;;;;;19.10;12.50;;;;;;5118055;27;20304;-62
2021/04/01 12:42:02;;;;;;;;;;;19.00;12.40;;;;;;5120840;27;19956;-62
2021/04/01 12:44:38;;;;;;;;;;;18.90;13.20;;;;;;5118252;27;19960;-62
2021/04/01 12:47:05;;;;;;;;;;;18.90;12.80;;;;;;5120034;27;19971;-62
2021/04/01 12:49:35;;;;;;;;;;;18.90;12.90;;;;;;5121997;27;20367;-62
2021/04/01 12:52:02;;;;;;;;;;;18.80;12.90;;;;;;5118241;27;21537;-61
2021/04/01 12:54:32;;;;;;;;;;;18.80;13.30;;;;;;5118777;27;19960;-63
2021/04/01 12:57:14;;;;;;;;;;;18.80;13.40;;;;;;5117157;27;19960;-61
2021/04/01 12:59:46;;;;;;;;;;;18.80;13.40;;;;;;5118029;27;20397;-61
2021/04/01 13:02:17;;;;;;;;;;;18.80;13.60;;;;;;5118584;27;19956;-62
2021/04/01 13:04:52;;;;;;;;;;;18.70;13.40;;;;;;5120305;27;20068;-61
2021/04/01 13:07:26;;;;;;;;;;;18.80;13.40;;;;;;5116626;27;20042;-61
2021/04/01 13:10:00;;;;;;;;;;;18.70;13.20;;;;;;5119058;27;19956;-62
2021/04/01 13:12:26;;;;;;;;;;;18.70;12.90;;;;;;5118076;27;20033;-61
2021/04/01 13:14:53;;;;;;;;;;;18.70;12.90;;;;;;5121444;27;20373;-62
2021/04/01 13:17:19;;;;;;;;;;;18.70;12.50;;;;;;5120396;27;19956;-60
2021/04/01 13:19:45;;;;;;;;;;;18.80;12.20;;;;;;5113025;27;20008;-62
2021/04/01 13:22:30;;;;;;;;;;;18.80;12.20;;;;;;5115865;27;19963;-62
2021/04/01 13:25:13;;;;;;;;;;;18.90;12.00;;;;;;5119548;27;20089;-61
2021/04/01 13:27:44;;;;;;;;;;;18.90;12.10;;;;;;5123253;27;19952;-61
2021/04/01 13:30:11;;;;;;;;;;;18.90;12.60;;;;;;5101462;27;19960;-62
2021/04/01 13:32:48;;;;;;;;;;;18.90;12.50;;;;;;5119474;27;19964;-62
2021/04/01 13:35:21;;;;;;;;;;;18.90;12.20;;;;;;5116925;27;19952;-62
2021/04/01 13:38:38;;;;;;;;;;;19.00;12.50;;;;;;5117127;27;19963;-62
2021/04/01 13:40:43;;;;;;;;;;;18.90;12.60;;;;;;5112579;27;19956;-62
2021/04/01 13:43:12;;;;;;;;;;;19.00;12.20;;;;;;5113431;27;19959;-62
2021/04/01 13:45:39;;;;;;;;;;;19.00;12.20;;;;;;5137155;27;19955;-63
2021/04/01 13:48:09;;;;;;;;;;;19.00;11.50;;;;;;5118298;27;19955;-61
2021/04/01 13:50:38;;;;;;;;;;;19.00;11.60;;;;;;5115404;27;20336;-61
2021/04/01 13:55:45;;;;;;;;;;;19.10;11.80;;;;;;5121350;27;20456;-61
2021/04/01 14:04:08;;;;;;;;;;;19.20;12.00;;;;;;5119686;27;19997;-63
2021/04/01 14:09:34;;;;;;;;;;;19.30;12.50;;;;;;5115519;27;20056;-61
2021/04/01 14:12:03;;;;;;;;;;;19.30;12.90;;;;;;5097081;27;20003;-62
2021/04/01 14:14:29;;;;;;;;;;;19.40;14.00;;;;;;5089818;28;19968;-63
2021/04/01 14:16:56;;;;;;;;;;;19.40;13.90;;;;;;5087387;28;20320;-63
2021/04/01 14:19:23;;;;;;;;;;;19.40;13.90;;;;;;5070804;28;20417;-61
2021/04/01 14:22:00;;;;;;;;;;;19.40;13.70;;;;;;5089089;28;20010;-63
2021/04/01 14:27:44;;;;;;;;;;;19.60;12.60;;;;;;5087767;28;19963;-63
2021/04/01 14:29:45;;;;;;;;;;;19.60;13.10;;;;;;5082206;28;19996;-63
2021/04/01 14:32:12;;;;;;;;;;;19.60;13.90;;;;;;5087994;28;19986;-63
2021/04/01 14:34:39;;;;;;;;;;;19.70;13.80;;;;;;5089133;28;19961;-64
2021/04/01 14:37:06;;;;;;;;;;;19.80;14.20;;;;;;5089932;28;19960;-63
2021/04/01 14:39:32;;;;;;;;;;;19.80;13.80;;;;;;5088314;28;19960;-65
2021/04/01 14:42:05;;;;;;;;;;;19.90;13.70;;;;;;5088969;28;20316;-62
2021/04/01 14:44:32;;;;;;;;;;;20.00;12.20;;;;;;5088677;28;19956;-63
2021/04/01 14:46:58;;;;;;;;;;;20.10;12.60;;;;;;5087694;28;20011;-63
2021/04/01 14:49:25;;;;;;;;;;;20.10;12.60;;;;;;5088451;28;19960;-62
2021/04/01 14:51:52;;;;;;;;;;;20.20;12.60;;;;;;5087636;28;19991;-64
2021/04/01 14:54:20;;;;;;;;;;;20.30;11.40;;;;;;5101347;28;20007;-63
2021/04/01 14:56:50;;;;;;;;;;;20.40;11.70;;;;;;5088201;28;19957;-65
2021/04/01 14:59:22;;;;;;;;;;;20.60;11.00;;;;;;5088679;28;19957;-62
2021/04/01 15:01:49;;;;;;;;;;;20.70;10.60;;;;;;5087632;28;19964;-62
2021/04/01 15:04:15;;;;;;;;;;;20.80;10.50;;;;;;5086692;28;20002;-62
2021/04/01 15:06:42;;;;;;;;;;;20.90;10.30;;;;;;5089556;28;19963;-63
2021/04/01 15:09:12;;;;;;;;;;;20.90;10.60;;;;;;5086594;28;19957;-63
2021/04/01 15:11:38;;;;;;;;;;;21.00;11.10;;;;;;5084564;28;20471;-63
2021/04/01 15:14:07;;;;;;;;;;;21.10;10.40;;;;;;5088055;28;19961;-63
2021/04/01 15:16:36;;;;;;;;;;;21.10;10.30;;;;;;5086707;28;20394;-61
2021/04/01 15:19:03;;;;;;;;;;;21.20;10.10;;;;;;5087739;28;19961;-63
2021/04/01 15:21:29;;;;;;;;;;;21.30;11.30;;;;;;5090628;28;20051;-63
2021/04/01 15:23:55;;;;;;;;;;;21.30;10.90;;;;;;5090320;28;19983;-62
2021/04/01 15:26:24;;;;;;;;;;;21.50;10.80;;;;;;5092763;28;20067;-63
2021/04/01 15:28:53;;;;;;;;;;;21.60;10.80;;;;;;5093267;28;20409;-63
2021/04/01 15:31:20;;;;;;;;;;;21.80;10.10;;;;;;5103401;28;21576;-64
2021/04/01 15:33:46;;;;;;;;;;;21.80;10.00;;;;;;5091996;28;19953;-64
2021/04/01 15:36:12;;;;;;;;;;;22.10;10.20;;;;;;5092230;28;19967;-64
2021/04/01 15:38:42;;;;;;;;;;;22.20;10.00;;;;;;5091251;28;19957;-62
2021/04/01 15:41:09;;;;;;;;;;;22.30;10.20;;;;;;5090733;28;20416;-62
2021/04/01 15:43:36;;;;;;;;;;;22.50;10.00;;;;;;5092013;28;19956;-62
2021/04/01 15:46:02;;;;;;;;;;;22.50;10.10;;;;;;5091882;28;19984;-62
2021/04/01 15:48:28;;;;;;;;;;;22.70;10.20;;;;;;5094287;28;19957;-62
2021/04/01 15:50:54;;;;;;;;;;;22.80;10.20;;;;;;5092287;28;19980;-63
2021/04/01 15:53:26;;;;;;;;;;;23.00;10.10;;;;;;5092486;28;20425;-63
2021/04/01 15:55:52;;;;;;;;;;;23.20;10.00;;;;;;5091005;28;20026;-63
2021/04/01 15:58:18;;;;;;;;;;;23.40;9.90;;;;;;5073591;28;19972;-63
2021/04/01 16:00:44;;;;;;;;;;;23.60;9.90;;;;;;5090079;28;19964;-60
2021/04/01 16:03:11;;;;;;;;;;;23.90;10.20;;;;;;5091661;28;19956;-62
2021/04/01 16:05:37;;;;;;;;;;;24.20;9.60;;;;;;5092601;28;20045;-62
2021/04/01 16:08:04;;;;;;;;;;;24.30;9.70;;;;;;5091603;28;20039;-63
2021/04/01 16:10:31;;;;;;;;;;;24.50;9.70;;;;;;5073731;27;20043;-62
2021/04/01 16:13:06;;;;;;;;;;;24.70;10.00;;;;;;5120756;27;20369;-63
2021/04/01 16:15:34;;;;;;;;;;;25.20;9.60;;;;;;5121000;27;20332;-63
2021/04/01 16:18:01;;;;;;;;;;;25.70;9.50;;;;;;5118773;27;19956;-63